Airfield :
LOGIN :

Register | Disclaimer

   EN    FR    IT 

 










Legend :    VFR   Marginal VFR   IFR   Intensive IFR   Very Intensive IFR
Visi :
Ceiling :
>= 8 km
>= 3000ft
5 to 8 km
1000 to 3000 ft
1500m to 5 km
500 to 1000 ft
800 to 1500m
200 to 500 ft
< 800m
< 200 ft
Symbols :   Thunderstorms  Fog  Heavy snow  Heavy precipitations  Wind > 20 kt
SIGMETs :     Misc.  Thunderstorms  Icing  Turbulence  Mountain Waves  Volcanic Ashes






- Airport Elevation : 1860 ft
- IATA code : GRX


LEGR - Granada

CURRENT METAR :
  • 082100Z 21005KT 9999 FEW055 SCT100 10/07 Q1027

EXPIRED METARs :
  • 082030Z 24006KT 9999 FEW055 SCT110 11/07 Q1027
  • 082000Z 25003KT 210V270 9999 FEW055 10/07 Q1027
  • 081930Z 26006KT 9999 FEW070 11/07 Q1027
  • 081900Z 26004KT 230V290 CAVOK 12/07 Q1027
  • 081830Z 26003KT 230V330 CAVOK 12/07 Q1027

TAF TAF LEGR
Valid from the 08 at 21:00 until the 09 at 21:00 UTC


082000Z 0821/0921 25005KT CAVOK TX18/0915Z TN03/0907Z



MET'MAP, your aeronautical weather chart ! - Copyright ORBIFLY December 2007 - Disclaimer

ORBIFLY MET'MAP TEAM :

Programming & Development : Alexandra Zaïnal
Concept & original design : Baudouin d'Aumeries
Assistance for programming : Marc-Olivier Méhu
Technical & hardware support : Manuel Goepfert

Contact : metmap@orbifly.com




SOURCES & CREDITS :

   NOAA